Leo Sun — D5EP6 — position and weather

sailwx.info

Track history (hours):
 
Tides and Currents Weather Stations Pressure Air Temp Water Temp Dewpoint Dewpoint Depression Visibility Wind Speed Wind Dir Waves Ship Positions

Leo Sun

Last reported at 2018-Feb-25 17:34 UTC. Time now 2018-Feb-25 23:57 UTC.
Position N 38°33' E 008°50'.

Length 244 m; draft 8 m.

Type: Tanker. MMSI: 636016127.

Date/timePositionNaut miles runAvg speedWind from/ knotsBaromVisibWave heightAir tempDewpointWater temp
2018-Feb-25 17:34N 38°33' E 008°50'114.4
2018-Feb-25 17:30N 38°34' E 008°49'814.8
2018-Feb-25 16:59N 38°38' E 008°41'2114.5
2018-Feb-25 15:32N 38°48' E 008°17'414.9
2018-Feb-25 15:14N 38°51' E 008°13'514.8
2018-Feb-25 14:53N 38°55' E 008°09'715.0
2018-Feb-25 14:26N 39°00' E 008°03'27014.6
2018-Feb-24 19:59N 42°55' E 005°07'714.6
2018-Feb-24 19:30N 43°02' E 005°04'714.6
2018-Feb-24 19:01N 43°09' E 005°02'713.7
2018-Feb-24 18:30N 43°15' E 004°60'510.9
2018-Feb-24 18:00N 43°21' E 004°58'4 8.3
2018-Feb-24 17:30N 43°24' E 004°55'1 2.0
2018-Feb-24 17:00N 43°24' E 004°53'0 0.0
2018-Feb-24 16:29N 43°24' E 004°53'0 0.0
2018-Feb-24 15:59N 43°24' E 004°53'0 0.0
2018-Feb-23 04:29N 43°24' E 004°53'0 0.2
2018-Feb-23 04:00N 43°24' E 004°53'1 2.0
2018-Feb-23 03:30N 43°24' E 004°55'3 6.0
2018-Feb-23 03:00N 43°22' E 004°58'2 3.3
2018-Feb-23 02:30N 43°21' E 004°60'0 0.2
2018-Feb-23 01:59N 43°21' E 004°60'0 0.0
2018-Feb-23 01:29N 43°21' E 004°60'0 0.0
2018-Feb-23 00:59N 43°21' E 004°60'0 0.0
2018-Feb-23 00:29N 43°21' E 004°60'0 0.0
2018-Feb-22 23:59N 43°21' E 004°60'0 0.0
2018-Feb-22 23:29N 43°21' E 004°60'0 0.0
2018-Feb-22 22:59N 43°21' E 004°60'0 0.0
2018-Feb-22 22:29N 43°21' E 004°60'0 0.0
2018-Feb-22 21:59N 43°21' E 004°60'0 0.0
2018-Feb-22 21:29N 43°21' E 004°60'0 0.0
2018-Feb-22 20:59N 43°21' E 004°60'0 0.0
2018-Feb-22 20:29N 43°21' E 004°60'0 0.0
2018-Feb-22 19:59N 43°21' E 004°60'0 0.0
2018-Feb-22 19:29N 43°21' E 004°60'0 0.0
2018-Feb-22 18:59N 43°21' E 004°60'0 0.0
2018-Feb-22 18:29N 43°21' E 004°60'0 0.0
2018-Feb-22 17:59N 43°21' E 004°60'0 0.0
2018-Feb-22 17:29N 43°21' E 004°60'0 0.0
2018-Feb-22 16:59N 43°21' E 004°60'0 0.0
2018-Feb-22 16:29N 43°21' E 004°60'0 0.0
2018-Feb-22 15:59N 43°21' E 004°60'0 0.0
2018-Feb-22 15:29N 43°21' E 004°60'0 0.0
2018-Feb-22 14:59N 43°21' E 004°60'0 0.0
2018-Feb-22 14:29N 43°21' E 004°60'0 0.0
2018-Feb-22 13:59N 43°21' E 004°60'0 0.0
2018-Feb-22 13:29N 43°21' E 004°60'0 0.0
2018-Feb-22 12:59N 43°21' E 004°60'0 0.0
2018-Feb-22 12:29N 43°21' E 004°60'0 0.0
2018-Feb-22 11:59N 43°21' E 004°60'0 0.0
2018-Feb-22 11:29N 43°21' E 004°60'0 0.0
2018-Feb-22 10:59N 43°21' E 004°60'0 0.0
2018-Feb-22 10:26N 43°21' E 004°60'0 0.0
2018-Feb-22 09:59N 43°21' E 004°60'0 0.0
2018-Feb-22 09:29N 43°21' E 004°60'0 0.0
2018-Feb-22 08:59N 43°21' E 004°60'0 0.0
2018-Feb-22 08:29N 43°21' E 004°60'0 0.0
2018-Feb-22 07:59N 43°21' E 004°60'0 0.0
2018-Feb-22 07:29N 43°21' E 004°60'0 0.0
2018-Feb-22 06:59N 43°21' E 004°60'0 0.0
2018-Feb-22 06:29N 43°21' E 004°60'0 0.0
2018-Feb-22 05:59N 43°21' E 004°60'0 0.0
2018-Feb-22 05:29N 43°21' E 004°60'0 0.0
2018-Feb-22 04:59N 43°21' E 004°60'0 0.0
2018-Feb-22 04:29N 43°21' E 004°60'0 0.0
2018-Feb-22 03:59N 43°21' E 004°60'0 0.0
2018-Feb-22 03:29N 43°21' E 004°60'0 0.0
2018-Feb-22 02:59N 43°21' E 004°60'0 0.0
2018-Feb-22 02:29N 43°21' E 004°60'0 0.0
2018-Feb-22 01:59N 43°21' E 004°60'0 0.0
2018-Feb-22 01:29N 43°21' E 004°60'0 0.0
2018-Feb-22 00:59N 43°21' E 004°60'0 0.0
2018-Feb-22 00:29N 43°21' E 004°60'0 0.0
2018-Feb-21 23:59N 43°21' E 004°60'0 0.0
2018-Feb-21 23:29N 43°21' E 004°60'0 0.0
2018-Feb-21 22:59N 43°21' E 004°60'0 0.0
2018-Feb-21 22:29N 43°21' E 004°60'0 0.0
2018-Feb-21 21:59N 43°21' E 004°60'0 0.0
2018-Feb-21 21:29N 43°21' E 004°60'0 0.0
2018-Feb-21 20:59N 43°21' E 004°60'0 0.0
2018-Feb-21 20:29N 43°21' E 004°60'0 0.0
2018-Feb-21 19:59N 43°21' E 004°60'0 0.0
2018-Feb-21 19:29N 43°21' E 004°60'0 0.0
2018-Feb-21 18:59N 43°21' E 004°60'0 0.0
2018-Feb-21 18:29N 43°21' E 004°60'0 0.0
2018-Feb-21 17:59N 43°21' E 004°60'0 0.0
2018-Feb-21 17:29N 43°21' E 004°60'0 0.0
2018-Feb-21 16:59N 43°21' E 004°60'0 0.0
2018-Feb-21 16:29N 43°21' E 004°60'0 0.0
2018-Feb-21 15:59N 43°21' E 004°60'0 0.0
2018-Feb-21 15:29N 43°21' E 004°60'0 0.0
2018-Feb-21 14:59N 43°21' E 004°60'0 0.0
2018-Feb-21 14:29N 43°21' E 004°60'0 0.0
2018-Feb-21 13:59N 43°21' E 004°60'0 0.0
2018-Feb-21 13:29N 43°21' E 004°60'0 0.0
2018-Feb-21 12:59N 43°21' E 004°60'0 0.0
2018-Feb-21 12:29N 43°21' E 004°60'0 0.0
2018-Feb-21 11:59N 43°21' E 004°60'0 0.0
2018-Feb-21 11:29N 43°21' E 004°60'0 0.0
2018-Feb-21 10:59N 43°21' E 004°60'0 0.0
2018-Feb-21 10:29N 43°21' E 004°60'0 0.0
2018-Feb-21 09:59N 43°21' E 004°60'0 0.0
2018-Feb-21 09:29N 43°21' E 004°60'0 0.1
2018-Feb-21 08:59N 43°21' E 004°60'0 0.1
2018-Feb-21 08:29N 43°21' E 004°60'0 0.1
2018-Feb-21 07:59N 43°21' E 004°60'0 0.0
2018-Feb-21 07:29N 43°21' E 004°60'0 0.0
2018-Feb-21 06:59N 43°21' E 004°60'0 0.0
2018-Feb-21 06:29N 43°21' E 004°60'0 0.1
2018-Feb-21 05:59N 43°21' E 004°60'0 0.1
2018-Feb-21 05:29N 43°21' E 004°60'0 0.1
2018-Feb-21 04:59N 43°21' E 004°60'0 0.0
2018-Feb-21 04:29N 43°21' E 004°60'0 0.0
2018-Feb-21 03:59N 43°21' E 004°60'0 0.0
2018-Feb-21 03:29N 43°21' E 004°60'0 0.0
2018-Feb-21 02:59N 43°21' E 004°60'0 0.0
2018-Feb-21 02:29N 43°21' E 004°60'0 0.0
2018-Feb-21 01:59N 43°21' E 004°60'0 0.0
2018-Feb-21 01:29N 43°21' E 004°60'0 0.0
2018-Feb-21 00:59N 43°21' E 004°60'0 0.0
2018-Feb-21 00:29N 43°21' E 004°60'0 0.0
2018-Feb-20 23:59N 43°21' E 004°60'0 0.0
2018-Feb-20 23:29N 43°21' E 004°60'0 0.1
2018-Feb-20 22:59N 43°21' E 004°60'0 0.1
2018-Feb-20 22:29N 43°21' E 004°60'0 0.0
2018-Feb-20 21:59N 43°21' E 004°60'0 0.0
2018-Feb-20 21:29N 43°21' E 004°60'0 0.0
2018-Feb-20 20:59N 43°21' E 004°60'0 0.0
2018-Feb-20 20:29N 43°21' E 004°60'0 0.0
2018-Feb-20 19:59N 43°21' E 004°60'0 0.1
2018-Feb-20 19:29N 43°21' E 004°60'0 0.0
2018-Feb-20 18:59N 43°21' E 004°60'0 0.0
2018-Feb-20 18:29N 43°21' E 004°60'0 0.0
2018-Feb-20 17:59N 43°21' E 004°60'0 0.0
2018-Feb-20 17:29N 43°21' E 004°60'0 0.0
2018-Feb-20 16:59N 43°21' E 004°60'0 0.0
2018-Feb-20 16:29N 43°21' E 004°60'0 0.1
2018-Feb-20 15:59N 43°21' E 004°60'0 0.5
2018-Feb-20 15:30N 43°21' E 004°60'2 3.7
2018-Feb-20 15:00N 43°22' E 004°58'2 3.2
2018-Feb-20 14:30N 43°21' E 004°59'0 0.8
2018-Feb-20 14:00N 43°21' E 004°60'0 0.2
2018-Feb-20 13:28N 43°21' E 004°60'0 0.0
2018-Feb-20 12:58N 43°21' E 004°60'0 0.0
2018-Feb-20 12:28N 43°21' E 004°60'0 0.0
2018-Feb-20 11:58N 43°21' E 004°60'0 0.0
2018-Feb-20 11:28N 43°21' E 004°60'0 0.0
2018-Feb-20 10:58N 43°21' E 004°60'0 0.0
2018-Feb-20 10:28N 43°21' E 004°60'0 0.0
2018-Feb-20 09:58N 43°21' E 004°60'0 0.0
2018-Feb-20 09:29N 43°21' E 004°60'0 0.0
2018-Feb-20 08:58N 43°21' E 004°60'0 0.0
2018-Feb-20 08:29N 43°21' E 004°60'0 0.0
2018-Feb-20 07:58N 43°21' E 004°60'0 0.0
2018-Feb-20 07:29N 43°21' E 004°60'0 0.1
2018-Feb-20 06:58N 43°21' E 004°60'0 0.0
2018-Feb-20 06:28N 43°21' E 004°60'0 0.1
2018-Feb-20 05:59N 43°21' E 004°60'0 0.0
2018-Feb-20 05:28N 43°21' E 004°60'0 0.0
2018-Feb-20 04:55N 43°21' E 004°60'0 0.1
2018-Feb-20 04:29N 43°21' E 004°60'0 0.0
2018-Feb-20 03:58N 43°21' E 004°60'0 0.0
2018-Feb-20 03:28N 43°21' E 004°60'0 0.0
2018-Feb-20 02:58N 43°21' E 004°60'0 0.1
2018-Feb-20 02:28N 43°21' E 004°60'0 0.1
2018-Feb-20 01:58N 43°21' E 004°60'0 0.4
2018-Feb-20 01:30N 43°21' E 004°60'2 3.7
2018-Feb-20 01:00N 43°19' E 004°59'4 8.3
2018-Feb-20 00:30N 43°15' E 005°01'4 7.6
2018-Feb-20 00:00N 43°12' E 005°03'4 5.2
2018-Feb-19 23:18N 43°08' E 005°03'1 4.8
2018-Feb-19 23:00N 43°07' E 005°03'5 8.8
2018-Feb-19 22:29N 43°02' E 005°03'53411.1
2018-Feb-17 22:12N 36°57' E 013°30'312.6
2018-Feb-17 21:59N 36°55' E 013°33'612.2
2018-Feb-17 21:30N 36°52' E 013°40'612.6
2018-Feb-17 21:00N 36°49' E 013°46'713.0
2018-Feb-17 20:30N 36°46' E 013°53'612.9
2018-Feb-17 20:00N 36°42' E 014°00'612.9
2018-Feb-17 19:30N 36°39' E 014°07'613.0
2018-Feb-17 19:00N 36°36' E 014°14'713.1
2018-Feb-17 18:30N 36°32' E 014°21'713.0
2018-Feb-17 17:59N 36°29' E 014°28'613.0
2018-Feb-17 17:29N 36°25' E 014°35'613.0
2018-Feb-17 16:59N 36°22' E 014°42'612.6
2018-Feb-17 16:30N 36°20' E 014°49'46911.4
2018-Feb-15 23:18N 37°40' E 024°28'  
Track history (hours):
 
Tides and Currents Weather Stations Pressure Air Temp Water Temp Dewpoint Dewpoint Depression Visibility Wind Speed Wind Dir Waves Ship Positions

Leo Sun

Last reported at 2018-Feb-25 17:34 UTC. Time now 2018-Feb-25 23:57 UTC.
Position N 38°33' E 008°50'.

Length 244 m; draft 8 m.

Type: Tanker. MMSI: 636016127.

Date/timePositionNaut miles runAvg speedWind from/ knotsBaromVisibWave heightAir tempDewpointWater temp
2018-Feb-25 17:34N 38°33' E 008°50'114.4
2018-Feb-25 17:30N 38°34' E 008°49'814.8
2018-Feb-25 16:59N 38°38' E 008°41'2114.5
2018-Feb-25 15:32N 38°48' E 008°17'414.9
2018-Feb-25 15:14N 38°51' E 008°13'514.8
2018-Feb-25 14:53N 38°55' E 008°09'715.0
2018-Feb-25 14:26N 39°00' E 008°03'27014.6
2018-Feb-24 19:59N 42°55' E 005°07'714.6
2018-Feb-24 19:30N 43°02' E 005°04'714.6
2018-Feb-24 19:01N 43°09' E 005°02'713.7
2018-Feb-24 18:30N 43°15' E 004°60'510.9
2018-Feb-24 18:00N 43°21' E 004°58'4 8.3
2018-Feb-24 17:30N 43°24' E 004°55'1 2.0
2018-Feb-24 17:00N 43°24' E 004°53'0 0.0
2018-Feb-24 16:29N 43°24' E 004°53'0 0.0
2018-Feb-24 15:59N 43°24' E 004°53'0 0.0
2018-Feb-23 04:29N 43°24' E 004°53'0 0.2
2018-Feb-23 04:00N 43°24' E 004°53'1 2.0
2018-Feb-23 03:30N 43°24' E 004°55'3 6.0
2018-Feb-23 03:00N 43°22' E 004°58'2 3.3
2018-Feb-23 02:30N 43°21' E 004°60'0 0.2
2018-Feb-23 01:59N 43°21' E 004°60'0 0.0
2018-Feb-23 01:29N 43°21' E 004°60'0 0.0
2018-Feb-23 00:59N 43°21' E 004°60'0 0.0
2018-Feb-23 00:29N 43°21' E 004°60'0 0.0
2018-Feb-22 23:59N 43°21' E 004°60'0 0.0
2018-Feb-22 23:29N 43°21' E 004°60'0 0.0
2018-Feb-22 22:59N 43°21' E 004°60'0 0.0
2018-Feb-22 22:29N 43°21' E 004°60'0 0.0
2018-Feb-22 21:59N 43°21' E 004°60'0 0.0
2018-Feb-22 21:29N 43°21' E 004°60'0 0.0
2018-Feb-22 20:59N 43°21' E 004°60'0 0.0
2018-Feb-22 20:29N 43°21' E 004°60'0 0.0
2018-Feb-22 19:59N 43°21' E 004°60'0 0.0
2018-Feb-22 19:29N 43°21' E 004°60'0 0.0
2018-Feb-22 18:59N 43°21' E 004°60'0 0.0
2018-Feb-22 18:29N 43°21' E 004°60'0 0.0
2018-Feb-22 17:59N 43°21' E 004°60'0 0.0
2018-Feb-22 17:29N 43°21' E 004°60'0 0.0
2018-Feb-22 16:59N 43°21' E 004°60'0 0.0
2018-Feb-22 16:29N 43°21' E 004°60'0 0.0
2018-Feb-22 15:59N 43°21' E 004°60'0 0.0
2018-Feb-22 15:29N 43°21' E 004°60'0 0.0
2018-Feb-22 14:59N 43°21' E 004°60'0 0.0
2018-Feb-22 14:29N 43°21' E 004°60'0 0.0
2018-Feb-22 13:59N 43°21' E 004°60'0 0.0
2018-Feb-22 13:29N 43°21' E 004°60'0 0.0
2018-Feb-22 12:59N 43°21' E 004°60'0 0.0
2018-Feb-22 12:29N 43°21' E 004°60'0 0.0
2018-Feb-22 11:59N 43°21' E 004°60'0 0.0
2018-Feb-22 11:29N 43°21' E 004°60'0 0.0
2018-Feb-22 10:59N 43°21' E 004°60'0 0.0
2018-Feb-22 10:26N 43°21' E 004°60'0 0.0
2018-Feb-22 09:59N 43°21' E 004°60'0 0.0
2018-Feb-22 09:29N 43°21' E 004°60'0 0.0
2018-Feb-22 08:59N 43°21' E 004°60'0 0.0
2018-Feb-22 08:29N 43°21' E 004°60'0 0.0
2018-Feb-22 07:59N 43°21' E 004°60'0 0.0
2018-Feb-22 07:29N 43°21' E 004°60'0 0.0
2018-Feb-22 06:59N 43°21' E 004°60'0 0.0
2018-Feb-22 06:29N 43°21' E 004°60'0 0.0
2018-Feb-22 05:59N 43°21' E 004°60'0 0.0
2018-Feb-22 05:29N 43°21' E 004°60'0 0.0
2018-Feb-22 04:59N 43°21' E 004°60'0 0.0
2018-Feb-22 04:29N 43°21' E 004°60'0 0.0
2018-Feb-22 03:59N 43°21' E 004°60'0 0.0
2018-Feb-22 03:29N 43°21' E 004°60'0 0.0
2018-Feb-22 02:59N 43°21' E 004°60'0 0.0
2018-Feb-22 02:29N 43°21' E 004°60'0 0.0
2018-Feb-22 01:59N 43°21' E 004°60'0 0.0
2018-Feb-22 01:29N 43°21' E 004°60'0 0.0
2018-Feb-22 00:59N 43°21' E 004°60'0 0.0
2018-Feb-22 00:29N 43°21' E 004°60'0 0.0
2018-Feb-21 23:59N 43°21' E 004°60'0 0.0
2018-Feb-21 23:29N 43°21' E 004°60'0 0.0
2018-Feb-21 22:59N 43°21' E 004°60'0 0.0
2018-Feb-21 22:29N 43°21' E 004°60'0 0.0
2018-Feb-21 21:59N 43°21' E 004°60'0 0.0
2018-Feb-21 21:29N 43°21' E 004°60'0 0.0
2018-Feb-21 20:59N 43°21' E 004°60'0 0.0
2018-Feb-21 20:29N 43°21' E 004°60'0 0.0
2018-Feb-21 19:59N 43°21' E 004°60'0 0.0
2018-Feb-21 19:29N 43°21' E 004°60'0 0.0
2018-Feb-21 18:59N 43°21' E 004°60'0 0.0
2018-Feb-21 18:29N 43°21' E 004°60'0 0.0
2018-Feb-21 17:59N 43°21' E 004°60'0 0.0
2018-Feb-21 17:29N 43°21' E 004°60'0 0.0
2018-Feb-21 16:59N 43°21' E 004°60'0 0.0
2018-Feb-21 16:29N 43°21' E 004°60'0 0.0
2018-Feb-21 15:59N 43°21' E 004°60'0 0.0
2018-Feb-21 15:29N 43°21' E 004°60'0 0.0
2018-Feb-21 14:59N 43°21' E 004°60'0 0.0
2018-Feb-21 14:29N 43°21' E 004°60'0 0.0
2018-Feb-21 13:59N 43°21' E 004°60'0 0.0
2018-Feb-21 13:29N 43°21' E 004°60'0 0.0
2018-Feb-21 12:59N 43°21' E 004°60'0 0.0
2018-Feb-21 12:29N 43°21' E 004°60'0 0.0
2018-Feb-21 11:59N 43°21' E 004°60'0 0.0
2018-Feb-21 11:29N 43°21' E 004°60'0 0.0
2018-Feb-21 10:59N 43°21' E 004°60'0 0.0
2018-Feb-21 10:29N 43°21' E 004°60'0 0.0
2018-Feb-21 09:59N 43°21' E 004°60'0 0.0
2018-Feb-21 09:29N 43°21' E 004°60'0 0.1
2018-Feb-21 08:59N 43°21' E 004°60'0 0.1
2018-Feb-21 08:29N 43°21' E 004°60'0 0.1
2018-Feb-21 07:59N 43°21' E 004°60'0 0.0
2018-Feb-21 07:29N 43°21' E 004°60'0 0.0
2018-Feb-21 06:59N 43°21' E 004°60'0 0.0
2018-Feb-21 06:29N 43°21' E 004°60'0 0.1
2018-Feb-21 05:59N 43°21' E 004°60'0 0.1
2018-Feb-21 05:29N 43°21' E 004°60'0 0.1
2018-Feb-21 04:59N 43°21' E 004°60'0 0.0
2018-Feb-21 04:29N 43°21' E 004°60'0 0.0
2018-Feb-21 03:59N 43°21' E 004°60'0 0.0
2018-Feb-21 03:29N 43°21' E 004°60'0 0.0
2018-Feb-21 02:59N 43°21' E 004°60'0 0.0
2018-Feb-21 02:29N 43°21' E 004°60'0 0.0
2018-Feb-21 01:59N 43°21' E 004°60'0 0.0
2018-Feb-21 01:29N 43°21' E 004°60'0 0.0
2018-Feb-21 00:59N 43°21' E 004°60'0 0.0
2018-Feb-21 00:29N 43°21' E 004°60'0 0.0
2018-Feb-20 23:59N 43°21' E 004°60'0 0.0
2018-Feb-20 23:29N 43°21' E 004°60'0 0.1
2018-Feb-20 22:59N 43°21' E 004°60'0 0.1
2018-Feb-20 22:29N 43°21' E 004°60'0 0.0
2018-Feb-20 21:59N 43°21' E 004°60'0 0.0
2018-Feb-20 21:29N 43°21' E 004°60'0 0.0
2018-Feb-20 20:59N 43°21' E 004°60'0 0.0
2018-Feb-20 20:29N 43°21' E 004°60'0 0.0
2018-Feb-20 19:59N 43°21' E 004°60'0 0.1
2018-Feb-20 19:29N 43°21' E 004°60'0 0.0
2018-Feb-20 18:59N 43°21' E 004°60'0 0.0
2018-Feb-20 18:29N 43°21' E 004°60'0 0.0
2018-Feb-20 17:59N 43°21' E 004°60'0 0.0
2018-Feb-20 17:29N 43°21' E 004°60'0 0.0
2018-Feb-20 16:59N 43°21' E 004°60'0 0.0
2018-Feb-20 16:29N 43°21' E 004°60'0 0.1
2018-Feb-20 15:59N 43°21' E 004°60'0 0.5
2018-Feb-20 15:30N 43°21' E 004°60'2 3.7
2018-Feb-20 15:00N 43°22' E 004°58'2 3.2
2018-Feb-20 14:30N 43°21' E 004°59'0 0.8
2018-Feb-20 14:00N 43°21' E 004°60'0 0.2
2018-Feb-20 13:28N 43°21' E 004°60'0 0.0
2018-Feb-20 12:58N 43°21' E 004°60'0 0.0
2018-Feb-20 12:28N 43°21' E 004°60'0 0.0
2018-Feb-20 11:58N 43°21' E 004°60'0 0.0
2018-Feb-20 11:28N 43°21' E 004°60'0 0.0
2018-Feb-20 10:58N 43°21' E 004°60'0 0.0
2018-Feb-20 10:28N 43°21' E 004°60'0 0.0
2018-Feb-20 09:58N 43°21' E 004°60'0 0.0
2018-Feb-20 09:29N 43°21' E 004°60'0 0.0
2018-Feb-20 08:58N 43°21' E 004°60'0 0.0
2018-Feb-20 08:29N 43°21' E 004°60'0 0.0
2018-Feb-20 07:58N 43°21' E 004°60'0 0.0
2018-Feb-20 07:29N 43°21' E 004°60'0 0.1
2018-Feb-20 06:58N 43°21' E 004°60'0 0.0
2018-Feb-20 06:28N 43°21' E 004°60'0 0.1
2018-Feb-20 05:59N 43°21' E 004°60'0 0.0
2018-Feb-20 05:28N 43°21' E 004°60'0 0.0
2018-Feb-20 04:55N 43°21' E 004°60'0 0.1
2018-Feb-20 04:29N 43°21' E 004°60'0 0.0
2018-Feb-20 03:58N 43°21' E 004°60'0 0.0
2018-Feb-20 03:28N 43°21' E 004°60'0 0.0
2018-Feb-20 02:58N 43°21' E 004°60'0 0.1
2018-Feb-20 02:28N 43°21' E 004°60'0 0.1
2018-Feb-20 01:58N 43°21' E 004°60'0 0.4
2018-Feb-20 01:30N 43°21' E 004°60'2 3.7
2018-Feb-20 01:00N 43°19' E 004°59'4 8.3
2018-Feb-20 00:30N 43°15' E 005°01'4 7.6
2018-Feb-20 00:00N 43°12' E 005°03'4 5.2
2018-Feb-19 23:18N 43°08' E 005°03'1 4.8
2018-Feb-19 23:00N 43°07' E 005°03'5 8.8
2018-Feb-19 22:29N 43°02' E 005°03'53411.1
2018-Feb-17 22:12N 36°57' E 013°30'312.6
2018-Feb-17 21:59N 36°55' E 013°33'612.2
2018-Feb-17 21:30N 36°52' E 013°40'612.6
2018-Feb-17 21:00N 36°49' E 013°46'713.0
2018-Feb-17 20:30N 36°46' E 013°53'612.9
2018-Feb-17 20:00N 36°42' E 014°00'612.9
2018-Feb-17 19:30N 36°39' E 014°07'613.0
2018-Feb-17 19:00N 36°36' E 014°14'713.1
2018-Feb-17 18:30N 36°32' E 014°21'713.0
2018-Feb-17 17:59N 36°29' E 014°28'613.0
2018-Feb-17 17:29N 36°25' E 014°35'613.0
2018-Feb-17 16:59N 36°22' E 014°42'612.6
2018-Feb-17 16:30N 36°20' E 014°49'46911.4
2018-Feb-15 23:18N 37°40' E 024°28'  

Dump ship's entire track history